Time;durP1;ratioP1;P1;durP2;ratioP2;P2;SDS_P1;SDS_P2;PMS_P1;PMS_P2;Temp;Humidity;BMP_temperature;BMP_pressure;BME280_temperature;BME280_humidity;BME280_pressure;Samples;Min_cycle;Max_cycle;Signal;HPM_P1;HPM_P2
2022/10/26 00:01:15;;;;;;;;;;;;;;;22.00;69.19;97417.95;574171;246;64622;-68
2022/10/26 00:03:43;;;;;;;;;;;;;;;22.01;68.16;97416.08;574151;247;65106;-68
2022/10/26 00:06:13;;;;;;;;;;;;;;;22.02;68.46;97415.03;574192;247;67301;-68
2022/10/26 00:08:41;;;;;;;;;;;;;;;22.00;68.14;97420.63;574214;247;64855;-68
2022/10/26 00:11:08;;;;;;;;;;;;;;;22.00;68.30;97417.16;574255;247;62721;-68
2022/10/26 00:13:36;;;;;;;;;;;;;;;22.00;69.04;97409.93;574221;247;67349;-68
2022/10/26 00:16:08;;;;;;;;;;;;;;;21.99;68.02;97415.53;574196;247;66936;-68
2022/10/26 00:18:36;;;;;;;;;;;;;;;21.99;68.68;97415.53;574199;247;65135;-68
2022/10/26 00:21:04;;;;;;;;;;;;;;;21.99;68.50;97411.02;574193;247;67148;-68
2022/10/26 00:23:31;;;;;;;;;;;;;;;21.99;69.23;97410.19;574180;247;67891;-67
2022/10/26 00:25:59;;;;;;;;;;;;;;;21.97;68.09;97402.44;574254;247;64819;-68
2022/10/26 00:28:26;;;;;;;;;;;;;;;21.98;68.71;97411.27;574201;247;66837;-68
2022/10/26 00:30:54;;;;;;;;;;;;;;;21.98;68.81;97419.30;574191;247;68091;-68
2022/10/26 00:33:22;;;;;;;;;;;;;;;21.98;68.92;97413.94;574204;247;62756;-68
2022/10/26 00:35:51;;;;;;;;;;;;;;;21.97;68.12;97418.50;574227;247;64890;-68
2022/10/26 00:38:18;;;;;;;;;;;;;;;21.98;68.92;97413.94;573778;246;64625;-68
2022/10/26 00:40:46;;;;;;;;;;;;;;;21.95;68.49;97410.72;574203;247;62791;-68
2022/10/26 00:43:15;;;;;;;;;;;;;;;21.97;68.07;97407.00;574216;247;64931;-68
2022/10/26 00:45:44;;;;;;;;;;;;;;;21.97;68.37;97409.67;573588;247;67348;-68
2022/10/26 00:48:13;;;;;;;;;;;;;;;21.95;67.94;97410.72;574225;247;62854;-68
2022/10/26 00:50:42;;;;;;;;;;;;;;;21.97;69.49;97407.00;574176;246;64989;-68
2022/10/26 00:53:11;;;;;;;;;;;;;;;21.94;67.18;97406.45;574243;247;67180;-68
2022/10/26 00:55:40;;;;;;;;;;;;;;;21.95;68.84;97416.08;574185;247;65138;-68
2022/10/26 00:58:09;;;;;;;;;;;;;;;21.95;68.07;97410.72;574240;247;64961;-68
2022/10/26 01:00:36;;;;;;;;;;;;;;;21.95;68.17;97407.25;574214;247;64857;-68
2022/10/26 01:03:08;;;;;;;;;;;;;;;21.94;67.60;97403.77;574279;247;62553;-67
2022/10/26 01:05:37;;;;;;;;;;;;;;;21.94;68.05;97402.98;574266;247;66818;-68
2022/10/26 01:08:05;;;;;;;;;;;;;;;21.94;68.86;97398.42;574208;247;64792;-68
2022/10/26 01:10:34;;;;;;;;;;;;;;;21.93;68.52;97394.16;574208;247;65133;-68
2022/10/26 01:13:02;;;;;;;;;;;;;;;21.93;68.83;97394.16;574232;247;67509;-68
2022/10/26 01:15:31;;;;;;;;;;;;;;;21.93;67.74;97396.00;574240;247;66936;-68
2022/10/26 01:18:03;;;;;;;;;;;;;;;21.92;67.95;97399.76;574088;246;65205;-68
2022/10/26 01:20:32;;;;;;;;;;;;;;;21.93;68.54;97404.86;574019;246;67211;-68
2022/10/26 01:23:05;;;;;;;;;;;;;;;21.92;69.33;97405.11;574184;247;66951;-67
2022/10/26 01:25:43;;;;;;;;;;;;;;;21.91;67.95;97409.66;573362;247;62948;-69
2022/10/26 01:28:14;;;;;;;;;;;;;;;21.91;68.56;97417.69;573993;247;64949;-67
2022/10/26 01:30:43;;;;;;;;;;;;;;;21.90;67.77;97405.36;573695;246;66986;-67
2022/10/26 01:33:15;;;;;;;;;;;;;;;21.90;68.18;97402.69;574132;247;65930;-68
2022/10/26 01:35:56;;;;;;;;;;;;;;;21.90;67.17;97396.54;574199;247;67046;-68
2022/10/26 01:38:26;;;;;;;;;;;;;;;21.90;68.53;97400.02;574020;246;66919;-68
2022/10/26 01:40:55;;;;;;;;;;;;;;;21.90;67.49;97404.56;574153;247;64896;-68
2022/10/26 01:43:23;;;;;;;;;;;;;;;21.89;68.29;97390.39;574056;246;67051;-68
2022/10/26 01:45:52;;;;;;;;;;;;;;;21.89;67.86;97392.27;573917;247;66929;-68
2022/10/26 01:48:21;;;;;;;;;;;;;;;21.89;67.83;97398.42;574152;247;65071;-68
2022/10/26 01:50:50;;;;;;;;;;;;;;;21.88;68.05;97393.32;574192;247;67124;-68
2022/10/26 01:53:19;;;;;;;;;;;;;;;21.89;67.45;97390.39;574186;247;66904;-68
2022/10/26 01:55:53;;;;;;;;;;;;;;;21.88;68.47;97399.50;574156;247;63850;-68
2022/10/26 01:58:22;;;;;;;;;;;;;;;21.89;68.48;97402.97;574120;247;66914;-66
2022/10/26 02:00:51;;;;;;;;;;;;;;;21.88;68.51;97399.50;574277;246;67024;-67
2022/10/26 02:03:21;;;;;;;;;;;;;;;21.89;70.02;97397.62;575476;246;62806;-67
2022/10/26 02:05:50;;;;;;;;;;;;;;;21.87;69.64;97386.37;575206;246;66861;-66
2022/10/26 02:08:22;;;;;;;;;;;;;;;21.87;68.40;97386.37;575630;246;66722;-66
2022/10/26 02:10:51;;;;;;;;;;;;;;;21.86;68.39;97385.58;575807;246;62733;-66
2022/10/26 02:13:20;;;;;;;;;;;;;;;21.86;67.84;97390.13;575260;246;64629;-67
2022/10/26 02:15:55;;;;;;;;;;;;;;;21.86;68.82;97385.58;575498;246;64837;-67
2022/10/26 02:18:33;;;;;;;;;;;;;;;21.87;68.31;97389.05;575732;246;66220;-68
2022/10/26 02:21:02;;;;;;;;;;;;;;;21.86;68.33;97393.61;575777;246;66760;-67
2022/10/26 02:23:31;;;;;;;;;;;;;;;21.86;68.52;97400.84;575824;246;63866;-67
2022/10/26 02:26:00;;;;;;;;;;;;;;;21.85;68.27;97394.69;575778;246;62800;-67
2022/10/26 02:28:29;;;;;;;;;;;;;;;21.86;68.14;97390.13;575824;246;67310;-67
2022/10/26 02:30:57;;;;;;;;;;;;;;;21.85;67.76;97393.86;575831;246;67260;-67
2022/10/26 02:33:26;;;;;;;;;;;;;;;21.85;68.10;97397.36;575862;246;62679;-67
2022/10/26 02:35:54;;;;;;;;;;;;;;;21.84;68.42;97393.06;575807;246;67105;-67
2022/10/26 02:38:23;;;;;;;;;;;;;;;21.85;68.26;97405.39;575824;246;64888;-67
2022/10/26 02:40:51;;;;;;;;;;;;;;;21.85;67.14;97396.53;575835;246;64925;-67
2022/10/26 02:43:21;;;;;;;;;;;;;;;21.84;67.61;97403.77;575838;246;67107;-67
2022/10/26 02:45:51;;;;;;;;;;;;;;;21.84;68.45;97410.99;575806;246;68647;-67
2022/10/26 02:48:18;;;;;;;;;;;;;;;21.84;68.19;97408.31;575835;246;65062;-67
2022/10/26 02:51:00;;;;;;;;;;;;;;;21.83;68.03;97410.20;575806;246;67243;-67
2022/10/26 02:53:34;;;;;;;;;;;;;;;21.83;68.43;97402.17;575756;246;64935;-67
2022/10/26 02:56:09;;;;;;;;;;;;;;;21.82;67.87;97400.55;575790;246;65061;-67
2022/10/26 02:58:38;;;;;;;;;;;;;;;21.82;68.46;97400.55;575679;246;67094;-68
2022/10/26 03:01:07;;;;;;;;;;;;;;;21.83;68.26;97406.72;575377;246;67085;-68
2022/10/26 03:03:35;;;;;;;;;;;;;;;21.82;69.04;97418.47;574269;247;64969;-68
2022/10/26 03:06:02;;;;;;;;;;;;;;;21.81;68.75;97417.68;574220;247;64878;-66
2022/10/26 03:08:30;;;;;;;;;;;;;;;21.82;68.19;97431.85;574222;247;64623;-66
2022/10/26 03:10:57;;;;;;;;;;;;;;;21.81;67.42;97424.91;574223;247;64931;-66
2022/10/26 03:13:25;;;;;;;;;;;;;;;21.82;68.87;97431.85;574207;247;67111;-66
2022/10/26 03:15:53;;;;;;;;;;;;;;;21.81;68.79;97436.41;574235;247;65146;-66
2022/10/26 03:18:21;;;;;;;;;;;;;;;21.81;68.54;97439.08;574228;247;62767;-67
2022/10/26 03:20:48;;;;;;;;;;;;;;;21.81;68.29;97432.93;574228;247;67111;-67
2022/10/26 03:23:16;;;;;;;;;;;;;;;21.80;68.32;97432.14;574172;247;64594;-67
2022/10/26 03:25:43;;;;;;;;;;;;;;;21.80;68.09;97428.63;574182;247;62734;-67
2022/10/26 03:28:11;;;;;;;;;;;;;;;21.79;67.62;97433.19;574253;247;64854;-67
2022/10/26 03:30:39;;;;;;;;;;;;;;;21.79;68.22;97433.19;574209;247;65529;-67
2022/10/26 03:33:06;;;;;;;;;;;;;;;21.79;67.84;97441.21;574232;247;65798;-67
2022/10/26 03:35:34;;;;;;;;;;;;;;;21.80;68.30;97431.30;574230;247;66800;-67
2022/10/26 03:38:01;;;;;;;;;;;;;;;21.80;68.43;97436.66;574224;247;64827;-67
2022/10/26 03:40:29;;;;;;;;;;;;;;;21.78;67.27;97431.59;574223;247;62889;-67
2022/10/26 03:42:56;;;;;;;;;;;;;;;21.79;68.75;97433.19;574216;247;64857;-67
2022/10/26 03:45:24;;;;;;;;;;;;;;;21.78;68.45;97439.61;574216;247;64762;-67
2022/10/26 03:47:52;;;;;;;;;;;;;;;21.78;68.55;97436.14;574212;247;62767;-67
2022/10/26 03:50:20;;;;;;;;;;;;;;;21.78;68.25;97441.49;574221;247;67268;-67
2022/10/26 03:52:49;;;;;;;;;;;;;;;21.77;68.25;97446.05;574167;247;64992;-67
2022/10/26 03:55:18;;;;;;;;;;;;;;;21.77;68.27;97440.70;574236;247;65108;-67
2022/10/26 03:57:46;;;;;;;;;;;;;;;21.77;68.89;97446.05;574228;247;67404;-67
2022/10/26 04:00:15;;;;;;;;;;;;;;;21.76;67.50;97438.27;574183;247;66874;-67
2022/10/26 04:02:47;;;;;;;;;;;;;;;21.77;68.02;97446.05;574195;247;63023;-67
2022/10/26 04:05:15;;;;;;;;;;;;;;;21.77;68.24;97450.57;574143;247;67233;-67
2022/10/26 04:07:43;;;;;;;;;;;;;;;21.76;68.14;97454.32;574257;247;65125;-67
2022/10/26 04:10:10;;;;;;;;;;;;;;;21.77;68.36;97458.59;574215;247;65402;-68
2022/10/26 04:12:38;;;;;;;;;;;;;;;21.76;69.14;97463.15;574223;247;67084;-68
2022/10/26 04:15:06;;;;;;;;;;;;;;;21.75;68.71;97458.08;574209;247;64851;-68
2022/10/26 04:17:34;;;;;;;;;;;;;;;21.75;67.96;97461.55;574259;247;65450;-68
2022/10/26 04:20:01;;;;;;;;;;;;;;;21.75;68.58;97460.75;574261;247;67122;-68
2022/10/26 04:22:29;;;;;;;;;;;;;;;21.75;69.10;97464.23;574256;247;66785;-68
2022/10/26 04:24:56;;;;;;;;;;;;;;;21.76;68.87;97462.34;574234;247;64920;-68
2022/10/26 04:27:24;;;;;;;;;;;;;;;21.75;68.04;97464.23;574232;247;67089;-67
2022/10/26 04:29:52;;;;;;;;;;;;;;;21.74;68.00;97467.95;574223;247;67311;-68
2022/10/26 04:32:21;;;;;;;;;;;;;;;21.75;67.91;97466.91;574231;247;64951;-68
2022/10/26 04:34:48;;;;;;;;;;;;;;;21.73;67.29;97467.16;574267;247;67227;-68
2022/10/26 04:37:16;;;;;;;;;;;;;;;21.75;67.92;97466.91;574231;247;66861;-68
2022/10/26 04:39:43;;;;;;;;;;;;;;;21.74;67.39;97467.95;574231;247;62828;-68
2022/10/26 04:42:11;;;;;;;;;;;;;;;21.75;67.82;97469.58;574224;247;64583;-68
2022/10/26 04:44:38;;;;;;;;;;;;;;;21.74;68.43;97470.63;574254;247;64833;-66
2022/10/26 04:47:06;;;;;;;;;;;;;;;21.73;68.39;97467.16;574272;247;62782;-66
2022/10/26 04:49:33;;;;;;;;;;;;;;;21.73;68.68;97475.17;574226;247;64587;-66
2022/10/26 04:52:01;;;;;;;;;;;;;;;21.73;68.80;97475.17;574230;247;64822;-66
2022/10/26 04:54:28;;;;;;;;;;;;;;;21.73;68.16;97477.85;574212;247;65228;-66
2022/10/26 04:56:57;;;;;;;;;;;;;;;21.73;69.01;97479.73;574208;247;67496;-67
2022/10/26 04:59:25;;;;;;;;;;;;;;;21.73;67.99;97482.41;574235;247;66846;-67
2022/10/26 05:01:52;;;;;;;;;;;;;;;21.72;68.09;97480.81;574181;247;64935;-67
2022/10/26 05:04:20;;;;;;;;;;;;;;;21.72;67.96;97488.83;574196;247;67103;-67
2022/10/26 05:06:47;;;;;;;;;;;;;;;21.72;68.73;97494.98;574080;247;66942;-67
2022/10/26 05:09:15;;;;;;;;;;;;;;;21.72;68.64;97488.83;574229;247;65104;-67
2022/10/26 05:11:42;;;;;;;;;;;;;;;21.71;68.69;97490.68;574310;247;68001;-67
2022/10/26 05:14:11;;;;;;;;;;;;;;;21.72;68.50;97499.53;573416;247;66869;-67
2022/10/26 05:16:39;;;;;;;;;;;;;;;21.72;69.62;97507.56;574224;247;64963;-66
2022/10/26 05:19:06;;;;;;;;;;;;;;;21.71;68.99;97501.37;574223;247;67091;-67
2022/10/26 05:21:34;;;;;;;;;;;;;;;21.71;69.67;97505.93;574252;247;67001;-67
2022/10/26 05:24:01;;;;;;;;;;;;;;;21.72;68.67;97518.26;574257;247;64979;-68
2022/10/26 05:26:29;;;;;;;;;;;;;;;21.71;69.25;97512.08;574224;247;67055;-67
2022/10/26 05:28:56;;;;;;;;;;;;;;;21.69;67.16;97508.89;574157;247;64851;-68
2022/10/26 05:31:24;;;;;;;;;;;;;;;21.71;68.86;97505.93;574224;247;65251;-67
2022/10/26 05:33:51;;;;;;;;;;;;;;;21.70;69.11;97507.02;574136;247;67105;-67
2022/10/26 05:36:19;;;;;;;;;;;;;;;21.70;69.77;97509.69;574222;247;66680;-68
2022/10/26 05:38:47;;;;;;;;;;;;;;;21.71;69.71;97516.63;574257;247;65299;-67
2022/10/26 05:41:14;;;;;;;;;;;;;;;21.71;67.93;97513.95;573728;247;67094;-68
2022/10/26 05:43:41;;;;;;;;;;;;;;;21.70;69.58;97520.38;574201;247;67212;-67
2022/10/26 05:46:09;;;;;;;;;;;;;;;21.70;70.35;97523.86;574227;247;64917;-67
2022/10/26 05:48:36;;;;;;;;;;;;;;;21.69;70.28;97534.84;574081;247;67131;-67
2022/10/26 05:51:04;;;;;;;;;;;;;;;21.69;69.73;97535.64;574278;247;64996;-67
2022/10/26 05:53:32;;;;;;;;;;;;;;;21.69;69.73;97546.34;574198;247;62839;-69
2022/10/26 05:56:00;;;;;;;;;;;;;;;21.70;70.29;97547.14;573582;247;65873;-68
2022/10/26 05:58:27;;;;;;;;;;;;;;;21.69;69.58;97550.89;574256;247;64590;-65
2022/10/26 06:01:06;;;;;;;;;;;;;;;21.69;69.23;97556.23;574232;247;65060;-65
2022/10/26 06:03:39;;;;;;;;;;;;;;;21.68;69.04;97550.06;574141;246;64246;-69
2022/10/26 06:06:07;;;;;;;;;;;;;;;21.69;68.27;97550.89;573778;246;64622;-72
2022/10/26 06:08:35;;;;;;;;;;;;;;;21.68;68.83;97554.61;574158;247;65131;-67
2022/10/26 06:11:03;;;;;;;;;;;;;;;21.68;69.10;97554.61;574182;247;67135;-67
2022/10/26 06:13:30;;;;;;;;;;;;;;;21.68;70.06;97565.31;574236;247;66851;-67
2022/10/26 06:16:04;;;;;;;;;;;;;;;21.67;67.96;97563.71;576421;241;46979;-67
2022/10/26 06:18:39;;;;;;;;;;;;;;;21.67;69.46;97561.84;578080;245;66863;-68
2022/10/26 06:21:11;;;;;;;;;;;;;;;21.68;69.03;97563.44;578831;245;66709;-70
2022/10/26 06:23:46;;;;;;;;;;;;;;;21.69;69.77;97559.71;578922;245;62795;-68
2022/10/26 06:26:34;;;;;;;;;;;;;;;21.66;61.39;97557.56;578838;245;64900;-73
2022/10/26 06:29:19;;;;;;;;;;;;;;;21.70;62.35;97563.98;578951;245;66938;-69
2022/10/26 06:31:47;;;;;;;;;;;;;;;21.72;64.88;97561.86;578924;245;65154;-69
2022/10/26 06:34:16;;;;;;;;;;;;;;;21.73;61.04;97570.69;578965;245;67106;-69
2022/10/26 06:36:44;;;;;;;;;;;;;;;21.76;62.65;97564.80;578960;245;66941;-68
2022/10/26 06:39:12;;;;;;;;;;;;;;;21.77;65.40;97571.78;578892;245;64907;-68
2022/10/26 06:41:39;;;;;;;;;;;;;;;21.78;66.68;97568.03;578934;245;67085;-69
2022/10/26 06:44:09;;;;;;;;;;;;;;;21.78;66.46;97569.91;578960;245;67701;-69
2022/10/26 06:46:47;;;;;;;;;;;;;;;21.80;66.02;97575.78;578900;245;64960;-69
2022/10/26 06:49:28;;;;;;;;;;;;;;;21.80;65.20;97567.75;578904;245;64822;-69
2022/10/26 06:52:05;;;;;;;;;;;;;;;21.80;66.08;97568.58;578900;245;67289;-69
2022/10/26 06:54:53;;;;;;;;;;;;;;;21.81;65.98;97564.83;578684;245;62850;-69
2022/10/26 06:57:22;;;;;;;;;;;;;;;21.83;65.01;97553.87;578859;245;65132;-69
2022/10/26 06:59:55;;;;;;;;;;;;;;;21.84;65.61;97558.95;578573;245;65166;-70
2022/10/26 07:02:23;;;;;;;;;;;;;;;21.83;63.71;97554.67;577884;243;65367;-68
2022/10/26 07:04:51;;;;;;;;;;;;;;;21.86;63.12;97559.50;577634;245;66072;-70
2022/10/26 07:07:20;;;;;;;;;;;;;;;21.87;64.00;97550.39;577614;245;66874;-70
2022/10/26 07:09:47;;;;;;;;;;;;;;;21.89;62.66;97555.49;577657;245;62741;-69
2022/10/26 07:12:15;;;;;;;;;;;;;;;21.90;64.18;97554.41;577708;245;65006;-68
2022/10/26 07:14:43;;;;;;;;;;;;;;;21.91;62.73;97548.81;577633;245;65613;-68
2022/10/26 07:17:10;;;;;;;;;;;;;;;21.94;63.60;97547.48;577692;245;62745;-69
2022/10/26 07:19:39;;;;;;;;;;;;;;;21.96;63.43;97553.35;577702;245;64712;-68
2022/10/26 07:22:06;;;;;;;;;;;;;;;21.97;63.90;97556.86;577643;245;65803;-67
2022/10/26 07:24:35;;;;;;;;;;;;;;;21.98;62.09;97550.42;577683;245;64844;-67
2022/10/26 07:27:02;;;;;;;;;;;;;;;22.00;61.34;97548.30;577685;245;65171;-68
2022/10/26 07:29:30;;;;;;;;;;;;;;;22.02;61.52;97546.17;577664;245;64921;-67
2022/10/26 07:31:57;;;;;;;;;;;;;;;22.03;61.41;97548.56;577728;245;65231;-67
2022/10/26 07:34:25;;;;;;;;;;;;;;;22.04;61.95;97541.33;578850;241;67125;-67
2022/10/26 07:36:52;;;;;;;;;;;;;;;22.06;59.90;97541.88;578675;245;66888;-67
2022/10/26 07:39:20;;;;;;;;;;;;;;;22.07;60.64;97540.80;578639;245;62787;-67
2022/10/26 07:41:47;;;;;;;;;;;;;;;22.10;60.24;97534.94;578674;245;64905;-67
2022/10/26 07:44:15;;;;;;;;;;;;;;;22.10;60.34;97538.41;578683;245;66929;-67
2022/10/26 07:46:42;;;;;;;;;;;;;;;22.12;59.70;97533.58;578644;245;64898;-66
2022/10/26 07:49:10;;;;;;;;;;;;;;;22.14;60.34;97533.33;578588;245;67112;-67
2022/10/26 07:51:37;;;;;;;;;;;;;;;22.16;59.67;97534.67;578673;245;67089;-67
2022/10/26 07:54:05;;;;;;;;;;;;;;;22.20;59.78;97528.81;578673;245;65153;-69
2022/10/26 07:56:33;;;;;;;;;;;;;;;22.20;59.99;97518.91;578584;245;64852;-69
2022/10/26 07:59:00;;;;;;;;;;;;;;;22.22;60.01;97526.67;578698;245;64829;-70
2022/10/26 08:01:28;;;;;;;;;;;;;;;22.25;59.87;97526.94;579324;244;64729;-68
2022/10/26 08:03:55;;;;;;;;;;;;;;;22.27;59.95;97527.48;580539;244;67084;-69
2022/10/26 08:06:23;;;;;;;;;;;;;;;22.31;59.63;97525.07;580601;244;64858;-67
2022/10/26 08:08:51;;;;;;;;;;;;;;;22.32;59.73;97519.46;580603;244;62777;-66
2022/10/26 08:11:19;;;;;;;;;;;;;;;22.34;60.11;97519.17;580442;244;68356;-68
2022/10/26 08:13:46;;;;;;;;;;;;;;;22.36;60.35;97520.52;580566;244;68155;-68
2022/10/26 08:16:13;;;;;;;;;;;;;;;22.38;59.74;97514.91;580577;244;64899;-68
2022/10/26 08:18:41;;;;;;;;;;;;;;;22.39;59.78;97514.63;580504;244;67148;-67
2022/10/26 08:21:15;;;;;;;;;;;;;;;22.42;59.94;97515.97;580605;244;67318;-67
2022/10/26 08:23:40;;;;;;;;;;;;;;;22.43;59.84;97516.80;580373;244;65966;-67
2022/10/26 08:26:10;;;;;;;;;;;;;;;22.45;59.55;97510.06;580518;244;67295;-67
2022/10/26 08:28:38;;;;;;;;;;;;;;;22.47;59.89;97512.49;580466;244;67977;-67
2022/10/26 08:31:06;;;;;;;;;;;;;;;22.48;59.46;97511.41;580549;244;65304;-68
2022/10/26 08:33:33;;;;;;;;;;;;;;;22.50;59.81;97511.95;580486;244;66994;-68
2022/10/26 08:36:02;;;;;;;;;;;;;;;22.51;60.06;97514.38;580576;244;66938;-68
2022/10/26 08:38:29;;;;;;;;;;;;;;;22.52;59.66;97510.61;580492;244;65117;-71
2022/10/26 08:40:57;;;;;;;;;;;;;;;22.55;59.14;97517.31;580531;244;65068;-66
2022/10/26 08:43:35;;;;;;;;;;;;;;;22.58;60.68;97514.89;580541;244;65065;-67
2022/10/26 08:46:04;;;;;;;;;;;;;;;22.61;59.36;97513.55;580335;244;64976;-64
2022/10/26 08:48:36;;;;;;;;;;;;;;;22.64;58.55;97513.01;580517;244;67151;-68
2022/10/26 08:51:05;;;;;;;;;;;;;;;22.68;59.71;97513.30;580478;244;64887;-68
2022/10/26 08:53:34;;;;;;;;;;;;;;;22.70;58.91;97517.31;580092;244;63448;-66
2022/10/26 08:56:03;;;;;;;;;;;;;;;22.72;58.91;97509.78;580501;244;64908;-67
2022/10/26 08:58:32;;;;;;;;;;;;;;;22.74;59.79;97513.00;580439;244;66801;-68
2022/10/26 09:01:00;;;;;;;;;;;;;;;22.76;58.67;97513.55;579817;244;64936;-67
2022/10/26 09:03:27;;;;;;;;;;;;;;;22.78;58.49;97500.69;576414;245;64117;-68
2022/10/26 09:05:59;;;;;;;;;;;;;;;22.80;58.66;97505.76;578091;245;64808;-68
2022/10/26 09:08:34;;;;;;;;;;;;;;;22.82;58.54;97514.34;577960;243;62779;-68
2022/10/26 09:11:09;;;;;;;;;;;;;;;22.85;58.58;97513.80;577991;245;67025;-68
2022/10/26 09:13:44;;;;;;;;;;;;;;;22.86;58.48;97506.55;578035;245;64891;-68
2022/10/26 09:16:13;;;;;;;;;;;;;;;22.88;58.04;97517.81;578000;245;63654;-68
2022/10/26 09:19:00;;;;;;;;;;;;;;;22.90;58.89;97518.34;577953;243;64964;-69
2022/10/26 09:21:29;;;;;;;;;;;;;;;22.89;58.40;97509.52;580804;244;66684;-67
2022/10/26 09:24:08;;;;;;;;;;;;;;;22.93;58.88;97517.80;581704;243;63057;-68
2022/10/26 09:26:46;;;;;;;;;;;;;;;22.93;59.11;97515.13;577024;243;67126;-68
2022/10/26 09:29:14;;;;;;;;;;;;;;;22.94;58.75;97506.00;576184;245;67274;-67
2022/10/26 09:31:46;;;;;;;;;;;;;;;22.95;58.29;97512.98;579274;244;64903;-67
2022/10/26 09:34:18;;;;;;;;;;;;;;;22.96;59.70;97506.56;579270;244;64769;-68
2022/10/26 09:36:45;;;;;;;;;;;;;;;22.97;58.90;97502.80;576355;244;66931;-67
2022/10/26 09:39:14;;;;;;;;;;;;;;;22.96;59.56;97507.37;576446;246;64943;-67
2022/10/26 09:41:58;;;;;;;;;;;;;;;22.98;59.57;97504.42;576332;246;67166;-67
2022/10/26 09:44:27;;;;;;;;;;;;;;;22.98;58.09;97501.75;576098;245;64866;-68
2022/10/26 09:47:02;;;;;;;;;;;;;;;22.99;58.42;97503.34;576413;244;64915;-68
2022/10/26 09:49:40;;;;;;;;;;;;;;;23.00;59.82;97500.41;576368;246;64186;-67
2022/10/26 09:52:07;;;;;;;;;;;;;;;23.00;59.70;97496.92;576367;244;64844;-67
2022/10/26 09:54:34;;;;;;;;;;;;;;;23.01;59.44;97502.00;576394;246;63490;-67
2022/10/26 09:57:02;;;;;;;;;;;;;;;23.02;60.04;97500.11;576424;246;67104;-69
2022/10/26 09:59:32;;;;;;;;;;;;;;;23.01;59.30;97503.88;576382;246;64554;-67
2022/10/26 10:02:00;;;;;;;;;;;;;;;23.01;59.33;97502.00;577586;245;62873;-66
2022/10/26 10:04:29;;;;;;;;;;;;;;;23.03;59.50;97499.06;578416;245;67329;-68
2022/10/26 10:07:04;;;;;;;;;;;;;;;23.03;60.25;97493.70;578372;245;66952;-68
2022/10/26 10:09:31;;;;;;;;;;;;;;;23.04;60.17;97490.73;578410;245;62756;-67
2022/10/26 10:12:01;;;;;;;;;;;;;;;23.03;59.58;97483.77;578368;245;64551;-68
2022/10/26 10:14:33;;;;;;;;;;;;;;;23.04;59.33;97489.93;578324;244;66711;-67
2022/10/26 10:17:02;;;;;;;;;;;;;;;23.05;59.82;97486.16;578436;245;62801;-67
2022/10/26 10:19:31;;;;;;;;;;;;;;;23.06;59.26;97487.78;578075;245;64613;-67
2022/10/26 10:22:03;;;;;;;;;;;;;;;23.07;58.16;97489.38;578374;245;66867;-69
2022/10/26 10:24:35;;;;;;;;;;;;;;;23.08;58.65;97480.28;570943;245;62796;-67
2022/10/26 10:27:11;;;;;;;;;;;;;;;23.09;58.12;97481.88;578380;245;64978;-67
2022/10/26 10:29:43;;;;;;;;;;;;;;;23.10;58.87;97482.67;578171;245;66833;-69
2022/10/26 10:32:12;;;;;;;;;;;;;;;23.11;58.46;97469.01;578183;244;65033;-67
2022/10/26 10:34:40;;;;;;;;;;;;;;;23.12;58.54;97480.53;577857;245;66896;-67
2022/10/26 10:37:09;;;;;;;;;;;;;;;23.12;58.33;97470.60;578363;245;66692;-68
2022/10/26 10:39:38;;;;;;;;;;;;;;;23.14;58.55;97475.70;577789;245;63773;-67
2022/10/26 10:42:07;;;;;;;;;;;;;;;23.14;58.55;97471.14;578140;245;67169;-67
2022/10/26 10:44:34;;;;;;;;;;;;;;;23.15;58.49;97469.25;578200;245;67619;-67
2022/10/26 10:47:03;;;;;;;;;;;;;;;23.16;58.56;97468.99;578415;245;65092;-68
2022/10/26 10:49:31;;;;;;;;;;;;;;;23.16;58.45;97465.48;578367;245;64830;-67
2022/10/26 10:51:59;;;;;;;;;;;;;;;23.16;58.56;97463.63;578412;245;65051;-66
2022/10/26 10:54:28;;;;;;;;;;;;;;;23.17;58.39;97461.75;578295;245;62810;-67
2022/10/26 10:57:03;;;;;;;;;;;;;;;23.18;58.21;97461.45;578426;245;67143;-67
2022/10/26 10:59:33;;;;;;;;;;;;;;;23.18;58.49;97458.77;578347;245;64858;-66
2022/10/26 11:02:19;;;;;;;;;;;;;;;23.19;58.66;97460.40;577198;245;62827;-67
2022/10/26 11:05:00;;;;;;;;;;;;;;;23.18;58.42;97453.41;576454;246;66801;-68
2022/10/26 11:07:30;;;;;;;;;;;;;;;23.18;58.40;97453.41;576304;244;67058;-68
2022/10/26 11:09:59;;;;;;;;;;;;;;;23.19;58.67;97449.67;576289;246;65080;-68
2022/10/26 11:12:28;;;;;;;;;;;;;;;23.20;58.77;97453.15;576341;246;68172;-68
2022/10/26 11:14:58;;;;;;;;;;;;;;;23.18;59.35;97456.09;576403;246;67745;-67
2022/10/26 11:17:27;;;;;;;;;;;;;;;23.14;60.32;97457.73;576395;246;65007;-68
2022/10/26 11:19:56;;;;;;;;;;;;;;;23.10;59.64;97456.66;576415;246;67090;-67
2022/10/26 11:22:27;;;;;;;;;;;;;;;23.09;59.95;97448.91;576292;246;64886;-68
2022/10/26 11:24:59;;;;;;;;;;;;;;;23.06;61.38;97447.58;576398;246;65731;-66
2022/10/26 11:27:28;;;;;;;;;;;;;;;23.05;58.14;97451.31;576344;244;67579;-68
2022/10/26 11:29:57;;;;;;;;;;;;;;;23.06;58.51;97450.26;576383;246;66989;-68
2022/10/26 11:32:30;;;;;;;;;;;;;;;23.04;57.92;97447.84;576438;244;65304;-68
2022/10/26 11:35:02;;;;;;;;;;;;;;;23.06;57.73;97450.26;576383;246;64987;-67
2022/10/26 11:37:40;;;;;;;;;;;;;;;23.06;57.93;97444.09;567070;244;66784;-67
2022/10/26 11:40:09;;;;;;;;;;;;;;;23.06;57.87;97455.62;576158;244;64951;-66
2022/10/26 11:42:38;;;;;;;;;;;;;;;23.06;57.87;97454.82;576424;246;67112;-66
2022/10/26 11:45:19;;;;;;;;;;;;;;;23.06;58.06;97449.46;576298;244;66810;-67
2022/10/26 11:47:48;;;;;;;;;;;;;;;23.06;57.97;97463.66;576390;244;62862;-68
2022/10/26 11:50:17;;;;;;;;;;;;;;;23.05;58.17;97448.63;576363;244;67106;-66
2022/10/26 11:53:05;;;;;;;;;;;;;;;23.06;58.49;97452.94;576383;245;66799;-67
2022/10/26 11:55:32;;;;;;;;;;;;;;;23.06;58.12;97444.09;576350;246;64909;-66
2022/10/26 11:58:01;;;;;;;;;;;;;;;23.06;58.09;97452.94;576377;246;67259;-66
2022/10/26 12:00:29;;;;;;;;;;;;;;;23.06;57.99;97452.94;576379;246;67389;-67
2022/10/26 12:02:58;;;;;;;;;;;;;;;23.05;58.09;97443.27;576409;245;64930;-68
2022/10/26 12:05:33;;;;;;;;;;;;;;;23.06;58.23;97447.58;576128;244;67125;-67
2022/10/26 12:08:03;;;;;;;;;;;;;;;23.05;58.24;97448.63;576406;246;64561;-67
2022/10/26 12:10:31;;;;;;;;;;;;;;;23.05;58.35;97445.95;576336;244;64967;-68
2022/10/26 12:13:07;;;;;;;;;;;;;;;23.06;58.35;97444.09;576270;246;68057;-66
2022/10/26 12:15:37;;;;;;;;;;;;;;;23.04;58.12;97441.68;576310;246;66961;-69
2022/10/26 12:18:08;;;;;;;;;;;;;;;23.06;58.30;97450.26;576416;244;65121;-69
2022/10/26 12:20:53;;;;;;;;;;;;;;;23.06;58.67;97444.09;575459;246;66758;-66
2022/10/26 12:23:22;;;;;;;;;;;;;;;23.05;59.08;97451.31;577457;245;64932;-70
2022/10/26 12:25:49;;;;;;;;;;;;;;;23.04;58.36;97452.40;578531;245;64990;-65
2022/10/26 12:28:36;;;;;;;;;;;;;;;23.04;58.77;97447.84;578616;245;65405;-69
2022/10/26 12:31:24;;;;;;;;;;;;;;;23.05;58.21;97451.31;578666;245;67026;-69
2022/10/26 12:33:51;;;;;;;;;;;;;;;23.04;58.10;97447.84;578597;245;65210;-73
2022/10/26 12:36:37;;;;;;;;;;;;;;;23.04;57.78;97447.84;578728;245;67210;-70
2022/10/26 12:39:06;;;;;;;;;;;;;;;23.03;58.62;97448.13;578638;245;64765;-70
2022/10/26 12:41:35;;;;;;;;;;;;;;;23.03;58.44;97442.77;578008;244;63003;-69
2022/10/26 12:44:04;;;;;;;;;;;;;;;23.02;58.72;97447.30;578532;244;64953;-68
2022/10/26 12:46:33;;;;;;;;;;;;;;;23.02;58.62;97441.94;578029;245;66763;-69
2022/10/26 12:49:00;;;;;;;;;;;;;;;23.01;59.43;97437.66;578600;245;62682;-68
2022/10/26 12:51:33;;;;;;;;;;;;;;;23.01;58.35;97436.87;578684;245;65101;-70
2022/10/26 12:54:18;;;;;;;;;;;;;;;23.01;59.83;97443.02;578588;245;67100;-70
2022/10/26 12:56:47;;;;;;;;;;;;;;;23.01;60.05;97447.59;578604;245;62775;-70
2022/10/26 12:59:32;;;;;;;;;;;;;;;23.00;58.11;97449.47;578583;243;47989;-69
2022/10/26 13:02:01;;;;;;;;;;;;;;;23.01;59.63;97451.06;583264;241;66899;-69